createdAt,value
2023-05-21T00:01:42.542Z,90.90
2023-05-21T00:04:09.632Z,90.90
2023-05-21T00:06:36.680Z,91.00
2023-05-21T00:09:05.743Z,91.10
2023-05-21T00:11:33.327Z,91.00
2023-05-21T00:14:00.220Z,91.00
2023-05-21T00:16:27.190Z,90.90
2023-05-21T00:18:54.696Z,90.80
2023-05-21T00:21:26.233Z,90.80
2023-05-21T00:23:57.092Z,90.80
2023-05-21T00:26:24.201Z,90.80
2023-05-21T00:28:54.477Z,91.10
2023-05-21T00:31:21.756Z,90.90
2023-05-21T00:33:48.680Z,90.80
2023-05-21T00:36:16.532Z,90.90
2023-05-21T00:38:44.314Z,91.10
2023-05-21T00:41:11.640Z,91.00
2023-05-21T00:43:41.623Z,91.10
2023-05-21T00:46:16.638Z,91.20
2023-05-21T00:48:47.678Z,91.20
2023-05-21T00:51:16.558Z,91.30
2023-05-21T00:53:44.428Z,91.30
2023-05-21T00:56:11.521Z,91.30
2023-05-21T00:58:40.547Z,91.30
2023-05-21T01:01:07.556Z,91.30
2023-05-21T01:03:38.506Z,91.60
2023-05-21T01:06:08.144Z,91.30
2023-05-21T01:08:37.553Z,91.30
2023-05-21T01:11:06.639Z,91.30
2023-05-21T01:13:38.030Z,91.20
2023-05-21T01:16:08.919Z,91.20
2023-05-21T01:18:37.945Z,91.20
2023-05-21T01:21:07.391Z,91.40
2023-05-21T01:23:34.626Z,91.60
2023-05-21T01:26:01.608Z,91.60
2023-05-21T01:28:29.767Z,91.50
2023-05-21T01:31:02.752Z,91.50
2023-05-21T01:33:50.393Z,91.60
2023-05-21T01:36:31.035Z,92.20
2023-05-21T01:39:06.742Z,92.10
2023-05-21T01:41:38.368Z,91.90
2023-05-21T01:44:07.120Z,91.90
2023-05-21T01:46:36.788Z,92.00
2023-05-21T01:49:06.298Z,92.20
2023-05-21T01:51:34.368Z,92.20
2023-05-21T01:54:02.192Z,92.20
2023-05-21T01:56:29.217Z,92.10
2023-05-21T01:58:59.795Z,92.10
2023-05-21T02:01:30.426Z,92.10
2023-05-21T02:03:58.166Z,92.20
2023-05-21T02:06:25.706Z,92.10
2023-05-21T02:08:52.654Z,92.10
2023-05-21T02:11:19.917Z,92.20
2023-05-21T02:13:46.897Z,92.20
2023-05-21T02:16:15.795Z,92.20
2023-05-21T02:18:46.350Z,92.20
2023-05-21T02:21:13.373Z,92.30
2023-05-21T02:23:42.541Z,92.20
2023-05-21T02:26:09.486Z,92.20
2023-05-21T02:28:38.446Z,92.20
2023-05-21T02:31:05.417Z,92.30
2023-05-21T02:33:32.437Z,92.60
2023-05-21T02:35:59.399Z,92.20
2023-05-21T02:38:26.332Z,92.10
2023-05-21T02:40:53.656Z,92.00
2023-05-21T02:43:20.802Z,92.00
2023-05-21T02:45:47.949Z,92.00
2023-05-21T02:48:15.172Z,92.00
2023-05-21T02:50:42.535Z,92.10
2023-05-21T02:53:09.620Z,92.20
2023-05-21T02:55:36.805Z,92.20
2023-05-21T02:58:03.965Z,92.30
2023-05-21T03:00:31.168Z,92.30
2023-05-21T03:03:00.349Z,92.40
2023-05-21T03:05:27.611Z,92.50
2023-05-21T03:07:54.537Z,92.50
2023-05-21T03:10:21.501Z,92.60
2023-05-21T03:12:48.454Z,92.60
2023-05-21T03:15:16.751Z,92.70
2023-05-21T03:17:44.435Z,92.80
2023-05-21T03:20:18.596Z,92.80
2023-05-21T03:22:46.410Z,92.80
2023-05-21T03:25:13.607Z,92.90
2023-05-21T03:27:40.766Z,93.00
2023-05-21T03:30:19.351Z,93.00
2023-05-21T03:33:06.564Z,93.10
2023-05-21T03:35:33.931Z,93.10
2023-05-21T03:38:01.782Z,93.10
2023-05-21T03:40:28.776Z,93.20
2023-05-21T03:42:55.750Z,93.20
2023-05-21T03:45:22.850Z,93.20
2023-05-21T03:48:10.078Z,93.20
2023-05-21T03:50:37.513Z,93.10
2023-05-21T03:53:05.660Z,93.10
2023-05-21T03:55:32.720Z,93.00
2023-05-21T03:57:59.747Z,92.90
2023-05-21T04:00:28.366Z,93.00
2023-05-21T04:02:55.758Z,93.10
2023-05-21T04:05:22.735Z,93.40
2023-05-21T04:07:50.440Z,93.50
2023-05-21T04:10:17.402Z,93.50
2023-05-21T04:12:44.459Z,93.50
2023-05-21T04:15:11.551Z,93.40
2023-05-21T04:17:40.006Z,93.20
2023-05-21T04:20:08.264Z,92.80
2023-05-21T04:22:35.324Z,92.50
2023-05-21T04:25:02.333Z,92.30
2023-05-21T04:27:35.357Z,92.00
2023-05-21T04:30:04.284Z,92.00
2023-05-21T04:32:34.874Z,92.00
2023-05-21T04:35:02.053Z,91.90
2023-05-21T04:37:30.124Z,91.90
2023-05-21T04:39:58.110Z,91.80
2023-05-21T04:42:26.183Z,91.70
2023-05-21T04:44:55.593Z,91.70
2023-05-21T04:47:22.900Z,91.60
2023-05-21T04:49:50.875Z,91.60
2023-05-21T04:52:17.927Z,91.50
2023-05-21T04:54:45.824Z,91.50
2023-05-21T04:57:13.057Z,91.60
2023-05-21T04:59:40.261Z,91.90
2023-05-21T05:02:07.290Z,91.60
2023-05-21T05:04:34.236Z,91.70
2023-05-21T05:07:01.703Z,91.70
2023-05-21T05:09:30.138Z,91.80
2023-05-21T05:11:57.138Z,91.80
2023-05-21T05:14:25.124Z,91.90
2023-05-21T05:16:52.176Z,91.90
2023-05-21T05:19:20.474Z,91.90
2023-05-21T05:21:47.888Z,92.00
2023-05-21T05:24:16.190Z,92.10
2023-05-21T05:26:43.734Z,92.10
2023-05-21T05:29:11.432Z,92.10
2023-05-21T05:31:38.429Z,92.30
2023-05-21T05:34:05.673Z,92.60
2023-05-21T05:36:33.635Z,92.70
2023-05-21T05:39:00.690Z,92.70
2023-05-21T05:41:27.844Z,92.60
2023-05-21T05:43:56.070Z,92.60
2023-05-21T05:46:26.201Z,92.60
2023-05-21T05:48:53.259Z,92.60
2023-05-21T05:51:20.359Z,92.60
2023-05-21T05:53:47.301Z,92.60
2023-05-21T05:56:14.396Z,92.60
2023-05-21T05:58:41.506Z,92.50
2023-05-21T06:01:11.781Z,92.50
2023-05-21T06:03:39.565Z,92.50
2023-05-21T06:06:12.065Z,92.50
2023-05-21T06:08:40.545Z,92.50
2023-05-21T06:11:07.553Z,92.40
2023-05-21T06:13:34.762Z,92.40
2023-05-21T06:16:04.188Z,92.40
2023-05-21T06:18:31.130Z,92.30
2023-05-21T06:20:58.061Z,92.20
2023-05-21T06:23:25.354Z,92.30
2023-05-21T06:25:53.073Z,92.30
2023-05-21T06:28:20.479Z,92.40
2023-05-21T06:30:48.888Z,92.40
2023-05-21T06:33:16.490Z,92.30
2023-05-21T06:35:44.183Z,92.30
2023-05-21T06:38:11.851Z,92.20
2023-05-21T06:40:38.785Z,92.10
2023-05-21T06:43:06.153Z,92.20
2023-05-21T06:46:08.260Z,92.10
2023-05-21T06:48:38.960Z,91.70
2023-05-21T06:51:06.125Z,91.60
2023-05-21T06:53:33.494Z,91.60
2023-05-21T06:56:00.820Z,91.60
2023-05-21T06:58:48.023Z,91.10
2023-05-21T07:01:16.615Z,91.20
2023-05-21T07:03:43.776Z,91.10
2023-05-21T07:06:10.732Z,91.00
2023-05-21T07:08:37.703Z,90.80
2023-05-21T07:11:04.717Z,90.60
2023-05-21T07:13:31.973Z,90.60
2023-05-21T07:15:58.962Z,90.60
2023-05-21T07:18:26.843Z,90.20
2023-05-21T07:20:53.897Z,90.20
2023-05-21T07:23:21.384Z,90.20
2023-05-21T07:25:48.418Z,89.70
2023-05-21T07:28:15.503Z,88.60
2023-05-21T07:30:42.488Z,88.40
2023-05-21T07:33:13.936Z,87.80
2023-05-21T07:35:41.022Z,87.00
2023-05-21T07:38:08.119Z,87.10
2023-05-21T07:40:35.037Z,85.30
2023-05-21T07:43:03.310Z,84.60
2023-05-21T07:45:31.721Z,85.10
2023-05-21T07:47:58.970Z,83.90
2023-05-21T07:50:27.129Z,83.20
2023-05-21T07:52:54.788Z,82.70
2023-05-21T07:55:21.956Z,82.20
2023-05-21T07:57:49.453Z,82.90
2023-05-21T08:00:19.043Z,82.50
2023-05-21T08:02:52.568Z,82.30
2023-05-21T08:05:21.219Z,82.20
2023-05-21T08:07:48.883Z,82.00
2023-05-21T08:10:17.853Z,81.90
2023-05-21T08:12:46.680Z,81.20
2023-05-21T08:15:13.898Z,80.80
2023-05-21T08:17:44.670Z,80.70
2023-05-21T08:20:13.481Z,80.30
2023-05-21T08:22:41.517Z,79.50
2023-05-21T08:25:09.437Z,79.10
2023-05-21T08:27:36.552Z,79.70
2023-05-21T08:30:05.670Z,79.10
2023-05-21T08:32:32.728Z,78.90
2023-05-21T08:35:00.751Z,78.40
2023-05-21T08:37:46.513Z,78.00
2023-05-21T08:40:23.770Z,77.30
2023-05-21T08:42:51.653Z,76.90
2023-05-21T08:45:44.911Z,77.10
2023-05-21T08:48:13.117Z,77.20
2023-05-21T08:50:41.555Z,76.80
2023-05-21T08:53:24.150Z,76.30
2023-05-21T08:55:57.400Z,75.80
2023-05-21T08:58:32.512Z,73.70
2023-05-21T09:00:59.814Z,73.50
2023-05-21T09:03:29.277Z,73.40
2023-05-21T09:05:57.547Z,72.50
2023-05-21T09:08:32.769Z,73.50
2023-05-21T09:11:03.564Z,72.40
2023-05-21T09:13:39.145Z,72.00
2023-05-21T09:16:12.548Z,71.30
2023-05-21T09:18:39.483Z,71.20
2023-05-21T09:21:26.460Z,70.30
2023-05-21T09:23:57.938Z,69.60
2023-05-21T09:26:26.448Z,70.50
2023-05-21T09:28:59.785Z,68.90
2023-05-21T09:31:27.311Z,67.30
2023-05-21T09:33:55.764Z,67.50
2023-05-21T09:36:25.569Z,67.60
2023-05-21T09:38:53.664Z,67.40
2023-05-21T09:41:22.310Z,67.90
2023-05-21T09:43:49.749Z,68.00
2023-05-21T09:46:26.095Z,68.20
2023-05-21T09:48:53.086Z,66.70
2023-05-21T09:51:21.687Z,66.30
2023-05-21T09:53:55.279Z,65.70
2023-05-21T09:56:32.275Z,65.00
2023-05-21T09:59:06.237Z,64.50
2023-05-21T10:01:34.350Z,63.90
2023-05-21T10:04:07.153Z,64.00
2023-05-21T10:06:42.894Z,63.90
2023-05-21T10:09:15.537Z,64.20
2023-05-21T10:11:45.002Z,63.90
2023-05-21T10:14:22.463Z,62.50
2023-05-21T10:16:50.419Z,61.70
2023-05-21T10:19:17.996Z,62.30
2023-05-21T10:21:45.995Z,62.10
2023-05-21T10:24:13.756Z,63.50
2023-05-21T10:26:41.794Z,63.50
2023-05-21T10:29:10.143Z,63.30
2023-05-21T10:31:39.098Z,62.60
2023-05-21T10:34:06.431Z,61.60
2023-05-21T10:36:34.324Z,62.00
2023-05-21T10:39:03.129Z,62.20
2023-05-21T10:41:46.564Z,61.00
2023-05-21T10:44:34.063Z,60.80
2023-05-21T10:47:37.896Z,60.70
2023-05-21T10:50:49.253Z,58.60
2023-05-21T10:53:56.565Z,58.60
2023-05-21T10:56:29.393Z,56.90
2023-05-21T10:59:28.228Z,57.40
2023-05-21T11:01:56.907Z,56.30
2023-05-21T11:04:26.948Z,57.10
2023-05-21T11:06:54.210Z,56.20
2023-05-21T11:09:21.118Z,55.80
2023-05-21T11:11:59.200Z,55.50
2023-05-21T11:14:56.790Z,55.50
2023-05-21T11:17:44.453Z,56.10
2023-05-21T11:20:16.662Z,55.80
2023-05-21T11:22:46.786Z,56.10
2023-05-21T11:25:15.484Z,55.30
2023-05-21T11:27:42.730Z,55.50
2023-05-21T11:30:19.904Z,55.70
2023-05-21T11:33:10.026Z,55.20
2023-05-21T11:35:44.809Z,55.10
2023-05-21T11:38:11.722Z,54.30
2023-05-21T11:40:50.554Z,53.40
2023-05-21T11:43:18.889Z,53.20
2023-05-21T11:45:47.311Z,52.80
2023-05-21T11:48:14.518Z,52.80
2023-05-21T11:50:44.710Z,51.40
2023-05-21T11:53:12.379Z,51.70
2023-05-21T11:55:43.494Z,50.90
2023-05-21T11:58:14.379Z,51.20
2023-05-21T12:00:41.536Z,49.80
2023-05-21T12:03:12.935Z,50.40
2023-05-21T12:05:49.804Z,50.80
2023-05-21T12:08:27.164Z,48.80
2023-05-21T12:11:03.367Z,49.10
2023-05-21T12:13:30.341Z,47.80
2023-05-21T12:15:57.292Z,47.30
2023-05-21T12:18:25.301Z,48.10
2023-05-21T12:20:52.526Z,48.20
2023-05-21T12:23:30.349Z,48.40
2023-05-21T12:25:57.385Z,48.60
2023-05-21T12:28:24.884Z,48.90
2023-05-21T12:30:53.489Z,48.50
2023-05-21T12:33:21.200Z,48.10
2023-05-21T12:35:51.567Z,48.30
2023-05-21T12:38:18.647Z,47.40
2023-05-21T12:40:46.058Z,46.50
2023-05-21T12:43:13.262Z,47.30
2023-05-21T12:45:40.728Z,47.20
2023-05-21T12:48:08.112Z,46.60
2023-05-21T12:50:39.247Z,46.70
2023-05-21T12:53:09.976Z,46.70
2023-05-21T12:55:36.909Z,46.80
2023-05-21T12:58:07.847Z,46.80
2023-05-21T13:00:35.239Z,47.00
2023-05-21T13:03:04.510Z,47.30
2023-05-21T13:05:31.794Z,47.90
2023-05-21T13:07:58.823Z,46.70
2023-05-21T13:10:25.767Z,46.70
2023-05-21T13:12:52.697Z,46.80
2023-05-21T13:15:19.979Z,46.40
2023-05-21T13:17:48.529Z,46.00
2023-05-21T13:20:26.236Z,46.20
2023-05-21T13:22:53.976Z,45.20
2023-05-21T13:25:24.821Z,45.60
2023-05-21T13:27:53.241Z,46.00
2023-05-21T13:30:21.987Z,46.20
2023-05-21T13:32:49.231Z,45.70
2023-05-21T13:35:16.782Z,46.30
2023-05-21T13:37:44.478Z,46.20
2023-05-21T13:40:17.012Z,45.90
2023-05-21T13:42:49.212Z,45.70
2023-05-21T13:45:20.071Z,44.90
2023-05-21T13:47:48.133Z,44.90
2023-05-21T13:50:16.190Z,45.00
2023-05-21T13:52:43.231Z,43.60
2023-05-21T13:55:10.712Z,44.10
2023-05-21T13:57:37.795Z,44.90
2023-05-21T14:00:05.887Z,44.70
2023-05-21T14:02:34.729Z,45.70
2023-05-21T14:05:01.834Z,45.60
2023-05-21T14:07:28.762Z,46.20
2023-05-21T14:09:56.062Z,45.90
2023-05-21T14:12:23.020Z,46.30
2023-05-21T14:14:50.021Z,46.40
2023-05-21T14:17:17.079Z,46.20
2023-05-21T14:19:44.135Z,46.10
2023-05-21T14:22:11.268Z,45.00
2023-05-21T14:24:38.234Z,44.40
2023-05-21T14:27:05.315Z,45.10
2023-05-21T14:29:33.214Z,44.90
2023-05-21T14:32:00.192Z,44.90
2023-05-21T14:34:27.264Z,44.50
2023-05-21T14:36:54.217Z,43.10
2023-05-21T14:39:21.153Z,42.30
2023-05-21T14:41:48.079Z,42.50
2023-05-21T14:44:15.007Z,42.90
2023-05-21T14:46:42.319Z,43.20
2023-05-21T14:49:09.273Z,43.50
2023-05-21T14:51:36.173Z,42.70
2023-05-21T14:54:03.188Z,43.30
2023-05-21T14:56:30.099Z,44.00
2023-05-21T14:58:57.015Z,44.20
2023-05-21T15:01:24.112Z,42.70
2023-05-21T15:03:51.409Z,42.90
2023-05-21T15:06:18.537Z,42.80
2023-05-21T15:08:45.478Z,42.80
2023-05-21T15:11:12.408Z,42.90
2023-05-21T15:13:39.710Z,42.70
2023-05-21T15:16:06.826Z,41.40
2023-05-21T15:18:33.853Z,41.80
2023-05-21T15:21:00.936Z,42.30
2023-05-21T15:23:28.046Z,42.70
2023-05-21T15:25:55.107Z,43.40
2023-05-21T15:28:23.024Z,43.90
2023-05-21T15:30:50.134Z,43.60
2023-05-21T15:33:17.119Z,43.20
2023-05-21T15:35:44.454Z,43.20
2023-05-21T15:38:11.706Z,43.10
2023-05-21T15:40:41.188Z,43.40
2023-05-21T15:43:08.256Z,43.10
2023-05-21T15:45:35.423Z,44.40
2023-05-21T15:48:02.553Z,49.30
2023-05-21T15:50:29.636Z,51.40
2023-05-21T15:52:56.563Z,51.60
2023-05-21T15:55:23.480Z,51.90
2023-05-21T15:57:50.706Z,52.10
2023-05-21T16:00:17.770Z,52.30
2023-05-21T16:02:44.817Z,52.30
2023-05-21T16:05:11.800Z,53.40
2023-05-21T16:07:38.737Z,53.40
2023-05-21T16:10:09.303Z,53.50
2023-05-21T16:12:36.236Z,53.80
2023-05-21T16:15:03.187Z,54.20
2023-05-21T16:17:30.150Z,54.30
2023-05-21T16:19:57.139Z,54.30
2023-05-21T16:22:24.640Z,54.20
2023-05-21T16:24:51.638Z,54.90
2023-05-21T16:27:18.576Z,54.80
2023-05-21T16:29:45.492Z,54.90
2023-05-21T16:32:13.996Z,55.40
2023-05-21T16:34:41.231Z,55.50
2023-05-21T16:37:09.636Z,55.60
2023-05-21T16:39:36.995Z,55.90
2023-05-21T16:42:04.028Z,56.20
2023-05-21T16:44:31.994Z,56.40
2023-05-21T16:47:00.227Z,56.50
2023-05-21T16:49:27.886Z,56.90
2023-05-21T16:51:54.970Z,56.90
2023-05-21T16:54:22.022Z,56.80
2023-05-21T16:56:48.971Z,56.70
2023-05-21T16:59:16.064Z,56.70
2023-05-21T17:01:43.113Z,56.80
2023-05-21T17:04:10.256Z,56.90
2023-05-21T17:06:37.246Z,56.90
2023-05-21T17:09:04.250Z,57.20
2023-05-21T17:11:31.581Z,57.60
2023-05-21T17:13:58.583Z,57.50
2023-05-21T17:16:25.544Z,58.10
2023-05-21T17:18:52.550Z,58.20
2023-05-21T17:21:19.714Z,58.20
2023-05-21T17:23:46.704Z,58.70
2023-05-21T17:26:13.950Z,59.10
2023-05-21T17:28:41.045Z,59.20
2023-05-21T17:31:09.487Z,59.20
2023-05-21T17:33:37.718Z,59.40
2023-05-21T17:36:04.883Z,59.90
2023-05-21T17:38:31.835Z,60.00
2023-05-21T17:40:59.265Z,60.00
2023-05-21T17:43:31.801Z,60.10
2023-05-21T17:45:58.793Z,60.60
2023-05-21T17:48:26.057Z,60.90
2023-05-21T17:50:53.078Z,61.00
2023-05-21T17:53:20.035Z,61.10
2023-05-21T17:55:47.041Z,61.00
2023-05-21T17:58:13.952Z,61.40
2023-05-21T18:00:40.900Z,61.50
2023-05-21T18:03:07.945Z,61.90
2023-05-21T18:05:35.540Z,62.20
2023-05-21T18:08:02.875Z,62.40
2023-05-21T18:10:30.043Z,62.60
2023-05-21T18:12:57.054Z,62.90
2023-05-21T18:15:24.018Z,63.00
2023-05-21T18:17:51.000Z,63.40
2023-05-21T18:20:18.647Z,63.40
2023-05-21T18:22:45.628Z,63.50
2023-05-21T18:25:12.559Z,63.60
2023-05-21T18:27:39.462Z,64.00
2023-05-21T18:30:07.256Z,64.20
2023-05-21T18:32:34.843Z,64.30
2023-05-21T18:35:02.333Z,64.60
2023-05-21T18:37:29.550Z,64.70
2023-05-21T18:39:56.510Z,64.90
2023-05-21T18:42:23.482Z,65.00
2023-05-21T18:44:53.462Z,65.20
2023-05-21T18:47:20.985Z,65.50
2023-05-21T18:49:47.975Z,65.60
2023-05-21T18:52:14.941Z,65.90
2023-05-21T18:54:41.840Z,66.20
2023-05-21T18:57:08.765Z,66.10
2023-05-21T18:59:36.288Z,66.40
2023-05-21T19:02:04.459Z,66.50
2023-05-21T19:04:31.484Z,67.10
2023-05-21T19:06:58.621Z,66.80
2023-05-21T19:09:25.602Z,66.80
2023-05-21T19:11:52.541Z,67.00
2023-05-21T19:14:20.954Z,67.50
2023-05-21T19:16:48.030Z,67.30
2023-05-21T19:19:14.993Z,67.60
2023-05-21T19:21:41.949Z,68.40
2023-05-21T19:24:08.925Z,67.60
2023-05-21T19:26:35.889Z,67.60
2023-05-21T19:29:02.808Z,67.60
2023-05-21T19:31:29.790Z,67.70
2023-05-21T19:33:56.748Z,67.90
2023-05-21T19:36:25.030Z,67.70
2023-05-21T19:38:52.024Z,67.90
2023-05-21T19:41:19.930Z,67.90
2023-05-21T19:43:47.039Z,68.30
2023-05-21T19:46:15.961Z,68.50
2023-05-21T19:48:45.283Z,68.80
2023-05-21T19:51:12.231Z,68.70
2023-05-21T19:53:39.179Z,68.70
2023-05-21T19:56:06.221Z,68.70
2023-05-21T19:58:33.195Z,68.90
2023-05-21T20:01:00.325Z,69.10
2023-05-21T20:03:28.586Z,68.90
2023-05-21T20:05:55.550Z,69.30
2023-05-21T20:08:22.964Z,69.50
2023-05-21T20:10:51.911Z,69.50
2023-05-21T20:13:19.626Z,69.70
2023-05-21T20:15:47.846Z,69.70
2023-05-21T20:18:15.482Z,70.80
2023-05-21T20:20:43.144Z,70.10
2023-05-21T20:23:10.144Z,70.30
2023-05-21T20:25:37.064Z,70.20
2023-05-21T20:28:05.204Z,70.70
2023-05-21T20:30:34.477Z,70.50
2023-05-21T20:33:02.799Z,70.90
2023-05-21T20:35:30.566Z,71.30
2023-05-21T20:37:57.565Z,71.40
2023-05-21T20:40:24.538Z,71.30
2023-05-21T20:42:53.306Z,71.30
2023-05-21T20:45:21.010Z,71.80
2023-05-21T20:47:49.660Z,72.00
2023-05-21T20:50:17.705Z,72.10
2023-05-21T20:52:47.099Z,72.30
2023-05-21T20:55:14.859Z,72.70
2023-05-21T20:57:42.057Z,72.80
2023-05-21T21:00:11.807Z,72.90
2023-05-21T21:02:39.177Z,73.20
2023-05-21T21:05:10.118Z,72.90
2023-05-21T21:07:37.746Z,73.50
2023-05-21T21:10:05.348Z,73.60
2023-05-21T21:12:32.247Z,73.40
2023-05-21T21:14:59.141Z,73.70
2023-05-21T21:17:26.173Z,73.90
2023-05-21T21:19:53.124Z,74.10
2023-05-21T21:22:20.037Z,74.10
2023-05-21T21:24:47.888Z,73.90
2023-05-21T21:27:14.848Z,74.20
2023-05-21T21:29:41.737Z,74.50
2023-05-21T21:32:08.631Z,74.50
2023-05-21T21:34:35.515Z,74.90
2023-05-21T21:37:02.441Z,75.10
2023-05-21T21:39:29.336Z,75.10
2023-05-21T21:41:56.252Z,75.50
2023-05-21T21:44:23.137Z,75.70
2023-05-21T21:46:50.106Z,75.60
2023-05-21T21:49:17.499Z,76.10
2023-05-21T21:51:44.934Z,76.20
2023-05-21T21:54:12.088Z,76.60
2023-05-21T21:56:39.012Z,76.60
2023-05-21T21:59:05.987Z,76.80
2023-05-21T22:01:33.148Z,76.90
2023-05-21T22:04:00.115Z,76.90
2023-05-21T22:06:27.765Z,76.90
2023-05-21T22:08:54.931Z,76.90
2023-05-21T22:11:22.018Z,76.90
2023-05-21T22:13:49.215Z,77.10
2023-05-21T22:16:16.225Z,77.30
2023-05-21T22:18:43.202Z,77.40
2023-05-21T22:21:11.014Z,77.90
2023-05-21T22:23:38.695Z,77.80
2023-05-21T22:26:09.479Z,77.90
2023-05-21T22:28:36.467Z,77.80
2023-05-21T22:31:03.544Z,78.30
2023-05-21T22:33:30.703Z,78.40
2023-05-21T22:35:58.077Z,78.30
2023-05-21T22:38:25.790Z,78.60
2023-05-21T22:40:52.788Z,78.50
2023-05-21T22:43:19.822Z,78.90
2023-05-21T22:45:46.977Z,78.50
2023-05-21T22:48:14.207Z,78.70
2023-05-21T22:50:41.478Z,79.00
2023-05-21T22:53:08.599Z,79.10
2023-05-21T22:55:35.532Z,78.90
2023-05-21T22:58:02.490Z,78.80
2023-05-21T23:00:29.573Z,78.90
2023-05-21T23:02:56.651Z,78.90
2023-05-21T23:05:23.769Z,78.90
2023-05-21T23:07:50.789Z,78.70
2023-05-21T23:10:17.727Z,78.80
2023-05-21T23:12:44.673Z,78.80
2023-05-21T23:15:11.726Z,78.80
2023-05-21T23:17:38.922Z,78.90
2023-05-21T23:20:08.730Z,78.90
2023-05-21T23:22:35.886Z,79.00
2023-05-21T23:25:03.738Z,78.90
2023-05-21T23:27:30.698Z,78.90
2023-05-21T23:29:57.616Z,78.80
2023-05-21T23:32:24.701Z,78.90
2023-05-21T23:34:51.668Z,78.80
2023-05-21T23:37:19.157Z,78.90
2023-05-21T23:39:49.539Z,78.90
2023-05-21T23:42:17.426Z,78.90
2023-05-21T23:44:44.745Z,79.90
2023-05-21T23:47:11.821Z,79.60
2023-05-21T23:49:39.649Z,79.30
2023-05-21T23:52:07.291Z,79.20
2023-05-21T23:54:34.241Z,79.20
2023-05-21T23:57:02.094Z,79.20
2023-05-21T23:59:29.268Z,80.10
